Terminal Aerodrome Forecast
Issued by NWS El Paso, TX

Home | Current Version | Previous Version | Text Only | Print | Product List | Glossary On
Versions: 1 2 3 4 5 6 7 8 9 10 11 12 13 14 15 16 17 18 19 20 21
000
FTUS44 KEPZ 190500
TAFELP
TAF
KELP 190540Z 1906/2006 36005KT P6SM VCSH BKN020 OVC060
     FM191000 VRB04KT 5SM BR SCT025 SCT060 BKN100
     FM191900 28010KT P6SM SCT040 BKN120
     FM200300 31005KT P6SM FEW060 SCT250=

USA.gov is the U.S. government's official web portal to all federal, state and local government web resources and services.